sensor_id;sensor_type;location;lat;lon;timestamp;temperature;humidity
21033;DHT22;10675;47.976;7.824;2023-01-28T00:00:28;1.70;99.90
21033;DHT22;10675;47.976;7.824;2023-01-28T00:02:54;1.70;99.90
21033;DHT22;10675;47.976;7.824;2023-01-28T00:05:19;1.70;99.90
21033;DHT22;10675;47.976;7.824;2023-01-28T00:07:48;1.70;99.90
21033;DHT22;10675;47.976;7.824;2023-01-28T00:10:15;1.70;99.90
21033;DHT22;10675;47.976;7.824;2023-01-28T00:12:40;1.70;99.90
21033;DHT22;10675;47.976;7.824;2023-01-28T00:15:06;1.70;99.90
21033;DHT22;10675;47.976;7.824;2023-01-28T00:17:32;1.70;99.90
21033;DHT22;10675;47.976;7.824;2023-01-28T00:19:57;1.70;99.90
21033;DHT22;10675;47.976;7.824;2023-01-28T00:22:23;1.70;99.90
21033;DHT22;10675;47.976;7.824;2023-01-28T00:24:48;1.70;99.90
21033;DHT22;10675;47.976;7.824;2023-01-28T00:27:14;1.70;99.90
21033;DHT22;10675;47.976;7.824;2023-01-28T00:29:40;1.70;99.90
21033;DHT22;10675;47.976;7.824;2023-01-28T00:32:06;1.70;99.90
21033;DHT22;10675;47.976;7.824;2023-01-28T00:34:31;1.70;99.90
21033;DHT22;10675;47.976;7.824;2023-01-28T00:36:57;1.70;99.90
21033;DHT22;10675;47.976;7.824;2023-01-28T00:39:23;1.70;99.90
21033;DHT22;10675;47.976;7.824;2023-01-28T00:41:52;1.70;99.90
21033;DHT22;10675;47.976;7.824;2023-01-28T00:44:19;1.80;99.90
21033;DHT22;10675;47.976;7.824;2023-01-28T00:46:45;1.80;99.90
21033;DHT22;10675;47.976;7.824;2023-01-28T00:49:11;1.80;99.90
21033;DHT22;10675;47.976;7.824;2023-01-28T00:51:37;1.70;99.90
21033;DHT22;10675;47.976;7.824;2023-01-28T00:54:03;1.80;99.90
21033;DHT22;10675;47.976;7.824;2023-01-28T00:56:28;1.70;99.90
21033;DHT22;10675;47.976;7.824;2023-01-28T00:58:54;1.70;99.90
21033;DHT22;10675;47.976;7.824;2023-01-28T01:01:22;1.70;99.90
21033;DHT22;10675;47.976;7.824;2023-01-28T01:03:48;1.70;99.90
21033;DHT22;10675;47.976;7.824;2023-01-28T01:06:23;1.80;99.90
21033;DHT22;10675;47.976;7.824;2023-01-28T01:08:49;1.70;99.90
21033;DHT22;10675;47.976;7.824;2023-01-28T01:11:15;1.80;99.90
21033;DHT22;10675;47.976;7.824;2023-01-28T01:13:41;1.80;99.90
21033;DHT22;10675;47.976;7.824;2023-01-28T01:16:08;1.80;99.90
21033;DHT22;10675;47.976;7.824;2023-01-28T01:18:34;1.70;99.90
21033;DHT22;10675;47.976;7.824;2023-01-28T01:21:01;1.70;99.90
21033;DHT22;10675;47.976;7.824;2023-01-28T01:23:30;1.70;99.90
21033;DHT22;10675;47.976;7.824;2023-01-28T01:25:56;1.80;99.90
21033;DHT22;10675;47.976;7.824;2023-01-28T01:28:21;1.80;99.90
21033;DHT22;10675;47.976;7.824;2023-01-28T01:30:48;1.80;99.90
21033;DHT22;10675;47.976;7.824;2023-01-28T01:33:15;1.80;99.90
21033;DHT22;10675;47.976;7.824;2023-01-28T01:35:41;1.80;99.90
21033;DHT22;10675;47.976;7.824;2023-01-28T01:38:06;1.90;99.90
21033;DHT22;10675;47.976;7.824;2023-01-28T01:40:33;1.90;99.90
21033;DHT22;10675;47.976;7.824;2023-01-28T01:42:58;1.90;99.90
21033;DHT22;10675;47.976;7.824;2023-01-28T01:45:24;1.90;99.90
21033;DHT22;10675;47.976;7.824;2023-01-28T01:48:02;1.80;99.90
21033;DHT22;10675;47.976;7.824;2023-01-28T01:50:39;1.90;99.90
21033;DHT22;10675;47.976;7.824;2023-01-28T01:53:10;1.90;99.90
21033;DHT22;10675;47.976;7.824;2023-01-28T01:55:38;1.90;99.90
21033;DHT22;10675;47.976;7.824;2023-01-28T01:58:08;1.90;99.90
21033;DHT22;10675;47.976;7.824;2023-01-28T02:00:34;1.90;99.90
21033;DHT22;10675;47.976;7.824;2023-01-28T02:03:00;1.80;99.90
21033;DHT22;10675;47.976;7.824;2023-01-28T02:05:26;1.80;99.90
21033;DHT22;10675;47.976;7.824;2023-01-28T02:07:54;1.80;99.90
21033;DHT22;10675;47.976;7.824;2023-01-28T02:10:42;2.00;99.90
21033;DHT22;10675;47.976;7.824;2023-01-28T02:13:08;1.90;99.90
21033;DHT22;10675;47.976;7.824;2023-01-28T02:15:34;1.90;99.90
21033;DHT22;10675;47.976;7.824;2023-01-28T02:18:00;1.90;99.90
21033;DHT22;10675;47.976;7.824;2023-01-28T02:23:20;1.90;99.90
21033;DHT22;10675;47.976;7.824;2023-01-28T02:28:37;1.90;99.90
21033;DHT22;10675;47.976;7.824;2023-01-28T02:39:04;1.90;99.90
21033;DHT22;10675;47.976;7.824;2023-01-28T02:41:39;1.90;99.90
21033;DHT22;10675;47.976;7.824;2023-01-28T02:44:06;1.90;99.90
21033;DHT22;10675;47.976;7.824;2023-01-28T02:46:36;1.90;99.90
21033;DHT22;10675;47.976;7.824;2023-01-28T02:49:27;1.90;99.90
21033;DHT22;10675;47.976;7.824;2023-01-28T02:58:24;2.00;99.90
21033;DHT22;10675;47.976;7.824;2023-01-28T03:01:12;2.00;99.90
21033;DHT22;10675;47.976;7.824;2023-01-28T03:03:56;2.00;99.90
21033;DHT22;10675;47.976;7.824;2023-01-28T03:06:34;2.10;99.90
21033;DHT22;10675;47.976;7.824;2023-01-28T03:09:05;2.10;99.90
21033;DHT22;10675;47.976;7.824;2023-01-28T03:18:09;2.00;99.90
21033;DHT22;10675;47.976;7.824;2023-01-28T03:21:33;2.00;99.90
21033;DHT22;10675;47.976;7.824;2023-01-28T03:24:43;2.00;99.90
21033;DHT22;10675;47.976;7.824;2023-01-28T03:30:21;2.00;99.90
21033;DHT22;10675;47.976;7.824;2023-01-28T03:33:06;2.00;99.90
21033;DHT22;10675;47.976;7.824;2023-01-28T03:35:50;2.00;99.90
21033;DHT22;10675;47.976;7.824;2023-01-28T03:38:34;2.00;99.90
21033;DHT22;10675;47.976;7.824;2023-01-28T03:41:07;2.00;99.90
21033;DHT22;10675;47.976;7.824;2023-01-28T03:43:34;2.00;99.90
21033;DHT22;10675;47.976;7.824;2023-01-28T03:46:00;2.00;99.90
21033;DHT22;10675;47.976;7.824;2023-01-28T03:48:27;2.00;99.90
21033;DHT22;10675;47.976;7.824;2023-01-28T03:50:54;2.00;99.90
21033;DHT22;10675;47.976;7.824;2023-01-28T03:53:22;2.10;99.90
21033;DHT22;10675;47.976;7.824;2023-01-28T03:55:49;2.00;99.90
21033;DHT22;10675;47.976;7.824;2023-01-28T03:58:16;1.90;99.90
21033;DHT22;10675;47.976;7.824;2023-01-28T04:00:42;1.90;99.90
21033;DHT22;10675;47.976;7.824;2023-01-28T04:03:17;1.90;99.90
21033;DHT22;10675;47.976;7.824;2023-01-28T04:05:45;1.90;99.90
21033;DHT22;10675;47.976;7.824;2023-01-28T04:08:11;1.90;99.90
21033;DHT22;10675;47.976;7.824;2023-01-28T04:10:38;1.90;99.90
21033;DHT22;10675;47.976;7.824;2023-01-28T04:13:04;1.90;99.90
21033;DHT22;10675;47.976;7.824;2023-01-28T04:15:30;1.90;99.90
21033;DHT22;10675;47.976;7.824;2023-01-28T04:17:55;1.90;99.90
21033;DHT22;10675;47.976;7.824;2023-01-28T04:20:21;1.90;99.90
21033;DHT22;10675;47.976;7.824;2023-01-28T04:22:46;1.90;99.90
21033;DHT22;10675;47.976;7.824;2023-01-28T04:25:12;1.90;99.90
21033;DHT22;10675;47.976;7.824;2023-01-28T04:27:38;1.80;99.90
21033;DHT22;10675;47.976;7.824;2023-01-28T04:30:03;1.80;99.90
21033;DHT22;10675;47.976;7.824;2023-01-28T04:32:29;1.80;99.90
21033;DHT22;10675;47.976;7.824;2023-01-28T04:34:55;1.80;99.90
21033;DHT22;10675;47.976;7.824;2023-01-28T04:37:20;1.80;99.90
21033;DHT22;10675;47.976;7.824;2023-01-28T04:39:46;1.80;99.90
21033;DHT22;10675;47.976;7.824;2023-01-28T04:42:11;1.80;99.90
21033;DHT22;10675;47.976;7.824;2023-01-28T04:44:37;1.80;99.90
21033;DHT22;10675;47.976;7.824;2023-01-28T04:47:02;1.80;99.90
21033;DHT22;10675;47.976;7.824;2023-01-28T04:49:28;1.80;99.90
21033;DHT22;10675;47.976;7.824;2023-01-28T04:51:53;2.20;99.90
21033;DHT22;10675;47.976;7.824;2023-01-28T04:54:19;1.80;99.90
21033;DHT22;10675;47.976;7.824;2023-01-28T04:56:44;1.90;99.90
21033;DHT22;10675;47.976;7.824;2023-01-28T04:59:10;1.80;99.90
21033;DHT22;10675;47.976;7.824;2023-01-28T05:01:35;1.80;99.90
21033;DHT22;10675;47.976;7.824;2023-01-28T05:04:01;1.80;99.90
21033;DHT22;10675;47.976;7.824;2023-01-28T05:06:30;1.80;99.90
21033;DHT22;10675;47.976;7.824;2023-01-28T05:08:56;1.80;99.90
21033;DHT22;10675;47.976;7.824;2023-01-28T05:11:22;1.80;99.90
21033;DHT22;10675;47.976;7.824;2023-01-28T05:13:48;1.90;99.90
21033;DHT22;10675;47.976;7.824;2023-01-28T05:16:14;1.90;99.90
21033;DHT22;10675;47.976;7.824;2023-01-28T05:18:39;1.90;99.90
21033;DHT22;10675;47.976;7.824;2023-01-28T05:21:05;1.90;99.90
21033;DHT22;10675;47.976;7.824;2023-01-28T05:23:30;2.00;99.90
21033;DHT22;10675;47.976;7.824;2023-01-28T05:25:56;2.00;99.90
21033;DHT22;10675;47.976;7.824;2023-01-28T05:28:21;2.00;99.90
21033;DHT22;10675;47.976;7.824;2023-01-28T05:30:47;2.00;99.90
21033;DHT22;10675;47.976;7.824;2023-01-28T05:33:12;2.00;99.90
21033;DHT22;10675;47.976;7.824;2023-01-28T05:35:38;2.00;99.90
21033;DHT22;10675;47.976;7.824;2023-01-28T05:38:04;2.00;99.90
21033;DHT22;10675;47.976;7.824;2023-01-28T05:40:30;2.00;99.90
21033;DHT22;10675;47.976;7.824;2023-01-28T05:42:56;2.10;99.90
21033;DHT22;10675;47.976;7.824;2023-01-28T05:45:21;2.10;99.90
21033;DHT22;10675;47.976;7.824;2023-01-28T05:47:47;2.00;99.90
21033;DHT22;10675;47.976;7.824;2023-01-28T05:50:13;2.00;99.90
21033;DHT22;10675;47.976;7.824;2023-01-28T05:52:39;2.10;99.90
21033;DHT22;10675;47.976;7.824;2023-01-28T05:55:04;2.10;99.90
21033;DHT22;10675;47.976;7.824;2023-01-28T05:57:31;2.10;99.90
21033;DHT22;10675;47.976;7.824;2023-01-28T05:59:56;2.10;99.90
21033;DHT22;10675;47.976;7.824;2023-01-28T06:02:22;2.00;99.90
21033;DHT22;10675;47.976;7.824;2023-01-28T06:04:47;2.20;99.90
21033;DHT22;10675;47.976;7.824;2023-01-28T06:07:13;2.10;99.90
21033;DHT22;10675;47.976;7.824;2023-01-28T06:09:40;2.10;99.90
21033;DHT22;10675;47.976;7.824;2023-01-28T06:12:06;2.10;99.90
21033;DHT22;10675;47.976;7.824;2023-01-28T06:14:31;2.00;99.90
21033;DHT22;10675;47.976;7.824;2023-01-28T06:16:57;2.00;99.90
21033;DHT22;10675;47.976;7.824;2023-01-28T06:19:22;2.00;99.90
21033;DHT22;10675;47.976;7.824;2023-01-28T06:21:48;2.10;99.90
21033;DHT22;10675;47.976;7.824;2023-01-28T06:24:13;2.10;99.90
21033;DHT22;10675;47.976;7.824;2023-01-28T06:26:39;2.00;99.90
21033;DHT22;10675;47.976;7.824;2023-01-28T06:29:04;2.00;99.90
21033;DHT22;10675;47.976;7.824;2023-01-28T06:31:30;2.00;99.90
21033;DHT22;10675;47.976;7.824;2023-01-28T06:33:56;2.00;99.90
21033;DHT22;10675;47.976;7.824;2023-01-28T06:36:21;2.20;99.90
21033;DHT22;10675;47.976;7.824;2023-01-28T06:38:47;2.00;99.90
21033;DHT22;10675;47.976;7.824;2023-01-28T06:41:12;2.00;99.90
21033;DHT22;10675;47.976;7.824;2023-01-28T06:43:38;2.00;99.90
21033;DHT22;10675;47.976;7.824;2023-01-28T06:46:03;2.10;99.90
21033;DHT22;10675;47.976;7.824;2023-01-28T06:48:29;2.20;99.90
21033;DHT22;10675;47.976;7.824;2023-01-28T06:50:55;2.20;99.90
21033;DHT22;10675;47.976;7.824;2023-01-28T06:53:20;2.30;99.90
21033;DHT22;10675;47.976;7.824;2023-01-28T06:55:46;2.30;99.90
21033;DHT22;10675;47.976;7.824;2023-01-28T06:58:12;2.40;99.90
21033;DHT22;10675;47.976;7.824;2023-01-28T07:00:37;2.40;99.90
21033;DHT22;10675;47.976;7.824;2023-01-28T07:03:03;2.30;99.90
21033;DHT22;10675;47.976;7.824;2023-01-28T07:05:29;2.30;99.90
21033;DHT22;10675;47.976;7.824;2023-01-28T07:07:54;2.20;99.90
21033;DHT22;10675;47.976;7.824;2023-01-28T07:10:20;2.30;99.90
21033;DHT22;10675;47.976;7.824;2023-01-28T07:12:45;2.30;99.90
21033;DHT22;10675;47.976;7.824;2023-01-28T07:15:11;2.30;99.90
21033;DHT22;10675;47.976;7.824;2023-01-28T07:17:41;2.20;99.90
21033;DHT22;10675;47.976;7.824;2023-01-28T07:20:08;2.30;99.90
21033;DHT22;10675;47.976;7.824;2023-01-28T07:22:35;2.30;99.90
21033;DHT22;10675;47.976;7.824;2023-01-28T07:25:01;2.30;99.90
21033;DHT22;10675;47.976;7.824;2023-01-28T07:27:27;2.30;99.90
21033;DHT22;10675;47.976;7.824;2023-01-28T07:29:53;2.30;99.90
21033;DHT22;10675;47.976;7.824;2023-01-28T07:32:18;2.20;99.90
21033;DHT22;10675;47.976;7.824;2023-01-28T07:34:44;2.20;99.90
21033;DHT22;10675;47.976;7.824;2023-01-28T07:37:09;2.20;99.90
21033;DHT22;10675;47.976;7.824;2023-01-28T07:39:35;2.30;99.90
21033;DHT22;10675;47.976;7.824;2023-01-28T07:42:01;2.20;99.90
21033;DHT22;10675;47.976;7.824;2023-01-28T07:44:26;2.20;99.90
21033;DHT22;10675;47.976;7.824;2023-01-28T07:46:52;2.20;99.90
21033;DHT22;10675;47.976;7.824;2023-01-28T07:49:18;2.50;99.90
21033;DHT22;10675;47.976;7.824;2023-01-28T07:51:44;2.30;99.90
21033;DHT22;10675;47.976;7.824;2023-01-28T07:54:11;2.30;99.90
21033;DHT22;10675;47.976;7.824;2023-01-28T07:56:37;2.30;99.90
21033;DHT22;10675;47.976;7.824;2023-01-28T07:59:02;2.30;99.90
21033;DHT22;10675;47.976;7.824;2023-01-28T08:01:28;2.30;99.90
21033;DHT22;10675;47.976;7.824;2023-01-28T08:03:54;2.30;99.90
21033;DHT22;10675;47.976;7.824;2023-01-28T08:06:20;2.40;99.90
21033;DHT22;10675;47.976;7.824;2023-01-28T08:08:46;2.40;99.90
21033;DHT22;10675;47.976;7.824;2023-01-28T08:11:12;2.40;99.90
21033;DHT22;10675;47.976;7.824;2023-01-28T08:13:38;2.50;99.90
21033;DHT22;10675;47.976;7.824;2023-01-28T08:16:04;2.50;99.90
21033;DHT22;10675;47.976;7.824;2023-01-28T08:18:30;2.60;99.90
21033;DHT22;10675;47.976;7.824;2023-01-28T08:20:56;2.60;99.90
21033;DHT22;10675;47.976;7.824;2023-01-28T08:23:23;2.60;99.90
21033;DHT22;10675;47.976;7.824;2023-01-28T08:25:51;2.60;99.90
21033;DHT22;10675;47.976;7.824;2023-01-28T08:28:17;2.70;99.90
21033;DHT22;10675;47.976;7.824;2023-01-28T08:30:43;2.70;99.90
21033;DHT22;10675;47.976;7.824;2023-01-28T08:33:11;2.80;99.90
21033;DHT22;10675;47.976;7.824;2023-01-28T08:35:38;2.90;99.90
21033;DHT22;10675;47.976;7.824;2023-01-28T08:38:04;2.90;99.90
21033;DHT22;10675;47.976;7.824;2023-01-28T08:40:31;3.00;99.90
21033;DHT22;10675;47.976;7.824;2023-01-28T08:42:57;2.90;99.90
21033;DHT22;10675;47.976;7.824;2023-01-28T08:45:24;3.00;99.90
21033;DHT22;10675;47.976;7.824;2023-01-28T08:50:17;2.90;99.90
21033;DHT22;10675;47.976;7.824;2023-01-28T08:52:44;2.90;99.90
21033;DHT22;10675;47.976;7.824;2023-01-28T08:55:11;2.90;99.90
21033;DHT22;10675;47.976;7.824;2023-01-28T08:57:37;3.00;99.90
21033;DHT22;10675;47.976;7.824;2023-01-28T09:00:04;3.00;99.90
21033;DHT22;10675;47.976;7.824;2023-01-28T09:02:30;3.10;99.90
21033;DHT22;10675;47.976;7.824;2023-01-28T09:04:55;3.00;99.90
21033;DHT22;10675;47.976;7.824;2023-01-28T09:07:21;3.10;99.90
21033;DHT22;10675;47.976;7.824;2023-01-28T09:09:46;3.10;99.90
21033;DHT22;10675;47.976;7.824;2023-01-28T09:12:12;3.10;99.90
21033;DHT22;10675;47.976;7.824;2023-01-28T09:14:37;3.10;99.90
21033;DHT22;10675;47.976;7.824;2023-01-28T09:17:04;3.20;99.90
21033;DHT22;10675;47.976;7.824;2023-01-28T09:19:29;3.20;99.90
21033;DHT22;10675;47.976;7.824;2023-01-28T09:21:55;3.20;99.90
21033;DHT22;10675;47.976;7.824;2023-01-28T09:24:21;3.20;99.90
21033;DHT22;10675;47.976;7.824;2023-01-28T09:26:50;3.20;99.90
21033;DHT22;10675;47.976;7.824;2023-01-28T09:29:15;3.20;99.90
21033;DHT22;10675;47.976;7.824;2023-01-28T09:31:41;3.20;99.90
21033;DHT22;10675;47.976;7.824;2023-01-28T09:34:08;3.30;99.90
21033;DHT22;10675;47.976;7.824;2023-01-28T09:36:34;3.30;99.90
21033;DHT22;10675;47.976;7.824;2023-01-28T09:39:00;3.30;99.90
21033;DHT22;10675;47.976;7.824;2023-01-28T09:41:28;3.30;99.70
21033;DHT22;10675;47.976;7.824;2023-01-28T09:46:39;3.30;99.30
21033;DHT22;10675;47.976;7.824;2023-01-28T09:49:31;3.30;99.60
21033;DHT22;10675;47.976;7.824;2023-01-28T09:51:58;3.40;99.30
21033;DHT22;10675;47.976;7.824;2023-01-28T09:54:40;3.40;98.90
21033;DHT22;10675;47.976;7.824;2023-01-28T09:57:21;3.40;99.10
21033;DHT22;10675;47.976;7.824;2023-01-28T09:59:47;4.40;99.90
21033;DHT22;10675;47.976;7.824;2023-01-28T10:11:26;3.60;99.80
21033;DHT22;10675;47.976;7.824;2023-01-28T10:17:25;3.70;99.10
21033;DHT22;10675;47.976;7.824;2023-01-28T10:20:01;3.70;98.40
21033;DHT22;10675;47.976;7.824;2023-01-28T10:22:34;3.70;98.60
21033;DHT22;10675;47.976;7.824;2023-01-28T10:25:06;3.70;98.90
21033;DHT22;10675;47.976;7.824;2023-01-28T10:27:34;3.70;98.40
21033;DHT22;10675;47.976;7.824;2023-01-28T10:30:18;3.60;98.00
21033;DHT22;10675;47.976;7.824;2023-01-28T10:33:17;3.60;98.70
21033;DHT22;10675;47.976;7.824;2023-01-28T10:35:45;3.60;97.80
21033;DHT22;10675;47.976;7.824;2023-01-28T10:38:24;3.60;98.30
21033;DHT22;10675;47.976;7.824;2023-01-28T10:40:51;3.60;98.00
21033;DHT22;10675;47.976;7.824;2023-01-28T10:43:24;3.60;98.00
21033;DHT22;10675;47.976;7.824;2023-01-28T10:49:10;3.70;98.50
21033;DHT22;10675;47.976;7.824;2023-01-28T10:51:39;3.90;99.90
21033;DHT22;10675;47.976;7.824;2023-01-28T10:54:21;4.10;98.60
21033;DHT22;10675;47.976;7.824;2023-01-28T10:57:12;4.00;97.40
21033;DHT22;10675;47.976;7.824;2023-01-28T10:59:41;4.00;96.90
21033;DHT22;10675;47.976;7.824;2023-01-28T11:02:40;4.10;97.30
21033;DHT22;10675;47.976;7.824;2023-01-28T11:07:43;4.10;95.80
21033;DHT22;10675;47.976;7.824;2023-01-28T11:10:41;4.10;95.90
21033;DHT22;10675;47.976;7.824;2023-01-28T11:15:54;4.10;95.40
21033;DHT22;10675;47.976;7.824;2023-01-28T11:18:27;4.30;94.60
21033;DHT22;10675;47.976;7.824;2023-01-28T11:20:59;4.60;94.90
21033;DHT22;10675;47.976;7.824;2023-01-28T11:23:33;4.70;94.20
21033;DHT22;10675;47.976;7.824;2023-01-28T11:26:22;5.00;94.10
21033;DHT22;10675;47.976;7.824;2023-01-28T11:28:47;5.20;93.10
21033;DHT22;10675;47.976;7.824;2023-01-28T11:31:14;5.40;93.10
21033;DHT22;10675;47.976;7.824;2023-01-28T11:33:45;5.50;92.70
21033;DHT22;10675;47.976;7.824;2023-01-28T11:36:16;5.80;92.10
21033;DHT22;10675;47.976;7.824;2023-01-28T11:41:34;6.30;91.00
21033;DHT22;10675;47.976;7.824;2023-01-28T11:44:23;6.40;90.20
21033;DHT22;10675;47.976;7.824;2023-01-28T11:47:00;6.20;88.40
21033;DHT22;10675;47.976;7.824;2023-01-28T11:55:18;5.80;88.80
21033;DHT22;10675;47.976;7.824;2023-01-28T12:00:44;5.60;89.20
21033;DHT22;10675;47.976;7.824;2023-01-28T12:06:51;5.40;90.40
21033;DHT22;10675;47.976;7.824;2023-01-28T12:08:58;5.40;90.60
21033;DHT22;10675;47.976;7.824;2023-01-28T12:17:18;6.00;90.40
21033;DHT22;10675;47.976;7.824;2023-01-28T12:25:57;5.70;89.20
21033;DHT22;10675;47.976;7.824;2023-01-28T12:39:58;5.10;91.10
21033;DHT22;10675;47.976;7.824;2023-01-28T12:42:33;5.00;91.00
21033;DHT22;10675;47.976;7.824;2023-01-28T12:45:26;5.00;91.40
21033;DHT22;10675;47.976;7.824;2023-01-28T12:47:53;5.10;91.60
21033;DHT22;10675;47.976;7.824;2023-01-28T12:50:30;5.00;91.70
21033;DHT22;10675;47.976;7.824;2023-01-28T12:53:02;5.00;92.10
21033;DHT22;10675;47.976;7.824;2023-01-28T12:55:41;5.10;92.20
21033;DHT22;10675;47.976;7.824;2023-01-28T12:58:26;4.90;91.50
21033;DHT22;10675;47.976;7.824;2023-01-28T13:00:59;4.80;92.20
21033;DHT22;10675;47.976;7.824;2023-01-28T13:03:34;4.80;92.20
21033;DHT22;10675;47.976;7.824;2023-01-28T13:06:49;4.70;92.30
21033;DHT22;10675;47.976;7.824;2023-01-28T13:09:02;4.70;92.70
21033;DHT22;10675;47.976;7.824;2023-01-28T13:11:35;4.70;93.00
21033;DHT22;10675;47.976;7.824;2023-01-28T13:14:03;4.80;93.00
21033;DHT22;10675;47.976;7.824;2023-01-28T13:16:29;4.80;93.40
21033;DHT22;10675;47.976;7.824;2023-01-28T13:19:05;4.80;93.00
21033;DHT22;10675;47.976;7.824;2023-01-28T13:21:34;4.70;92.90
21033;DHT22;10675;47.976;7.824;2023-01-28T13:31:45;4.50;93.30
21033;DHT22;10675;47.976;7.824;2023-01-28T13:34:28;4.70;94.00
21033;DHT22;10675;47.976;7.824;2023-01-28T13:36:55;4.50;93.60
21033;DHT22;10675;47.976;7.824;2023-01-28T13:39:23;4.40;93.40
21033;DHT22;10675;47.976;7.824;2023-01-28T13:41:55;4.50;93.80
21033;DHT22;10675;47.976;7.824;2023-01-28T13:44:33;4.50;93.60
21033;DHT22;10675;47.976;7.824;2023-01-28T13:47:13;4.50;93.40
21033;DHT22;10675;47.976;7.824;2023-01-28T13:49:55;4.50;92.70
21033;DHT22;10675;47.976;7.824;2023-01-28T13:52:41;4.40;92.00
21033;DHT22;10675;47.976;7.824;2023-01-28T14:00:40;4.40;91.40
21033;DHT22;10675;47.976;7.824;2023-01-28T14:06:07;4.40;91.10
21033;DHT22;10675;47.976;7.824;2023-01-28T14:08:41;4.40;91.50
21033;DHT22;10675;47.976;7.824;2023-01-28T14:15:02;5.00;91.70
21033;DHT22;10675;47.976;7.824;2023-01-28T14:19:45;4.40;91.80
21033;DHT22;10675;47.976;7.824;2023-01-28T14:22:19;4.30;91.60
21033;DHT22;10675;47.976;7.824;2023-01-28T14:24:45;4.30;91.60
21033;DHT22;10675;47.976;7.824;2023-01-28T14:27:28;4.20;91.80
21033;DHT22;10675;47.976;7.824;2023-01-28T14:30:19;4.20;92.10
21033;DHT22;10675;47.976;7.824;2023-01-28T14:32:50;4.20;92.20
21033;DHT22;10675;47.976;7.824;2023-01-28T14:35:29;4.20;91.80
21033;DHT22;10675;47.976;7.824;2023-01-28T14:37:56;4.10;91.70
21033;DHT22;10675;47.976;7.824;2023-01-28T14:40:23;4.10;91.50
21033;DHT22;10675;47.976;7.824;2023-01-28T14:42:52;4.10;91.40
21033;DHT22;10675;47.976;7.824;2023-01-28T14:58:32;4.20;90.70
21033;DHT22;10675;47.976;7.824;2023-01-28T15:00:59;4.20;90.90
21033;DHT22;10675;47.976;7.824;2023-01-28T15:03:27;4.10;91.10
21033;DHT22;10675;47.976;7.824;2023-01-28T15:06:06;4.10;90.10
21033;DHT22;10675;47.976;7.824;2023-01-28T15:08:36;4.10;90.20
21033;DHT22;10675;47.976;7.824;2023-01-28T15:11:04;4.10;90.80
21033;DHT22;10675;47.976;7.824;2023-01-28T15:13:35;4.10;90.40
21033;DHT22;10675;47.976;7.824;2023-01-28T15:16:01;4.00;90.60
21033;DHT22;10675;47.976;7.824;2023-01-28T15:18:36;4.10;90.80
21033;DHT22;10675;47.976;7.824;2023-01-28T15:21:04;4.10;91.00
21033;DHT22;10675;47.976;7.824;2023-01-28T15:23:35;4.10;91.10
21033;DHT22;10675;47.976;7.824;2023-01-28T15:26:05;4.10;90.90
21033;DHT22;10675;47.976;7.824;2023-01-28T15:28:34;4.00;90.70
21033;DHT22;10675;47.976;7.824;2023-01-28T15:31:01;4.00;91.10
21033;DHT22;10675;47.976;7.824;2023-01-28T15:33:27;4.00;90.80
21033;DHT22;10675;47.976;7.824;2023-01-28T15:35:54;4.00;91.00
21033;DHT22;10675;47.976;7.824;2023-01-28T15:38:21;4.00;90.80
21033;DHT22;10675;47.976;7.824;2023-01-28T15:40:56;4.00;90.90
21033;DHT22;10675;47.976;7.824;2023-01-28T15:43:30;4.00;90.70
21033;DHT22;10675;47.976;7.824;2023-01-28T15:45:56;3.90;90.60
21033;DHT22;10675;47.976;7.824;2023-01-28T15:48:25;4.00;91.00
21033;DHT22;10675;47.976;7.824;2023-01-28T15:51:30;4.00;90.90
21033;DHT22;10675;47.976;7.824;2023-01-28T15:53:59;3.90;91.10
21033;DHT22;10675;47.976;7.824;2023-01-28T15:56:28;3.90;90.70
21033;DHT22;10675;47.976;7.824;2023-01-28T15:58:55;3.90;90.50
21033;DHT22;10675;47.976;7.824;2023-01-28T16:01:21;3.90;90.80
21033;DHT22;10675;47.976;7.824;2023-01-28T16:04:05;3.90;90.10
21033;DHT22;10675;47.976;7.824;2023-01-28T16:06:36;3.90;90.50
21033;DHT22;10675;47.976;7.824;2023-01-28T16:09:05;3.90;90.10
21033;DHT22;10675;47.976;7.824;2023-01-28T16:11:37;3.90;89.60
21033;DHT22;10675;47.976;7.824;2023-01-28T16:14:24;3.90;90.00
21033;DHT22;10675;47.976;7.824;2023-01-28T16:16:52;3.90;90.00
21033;DHT22;10675;47.976;7.824;2023-01-28T16:19:38;3.90;90.40
21033;DHT22;10675;47.976;7.824;2023-01-28T16:22:05;3.90;90.30
21033;DHT22;10675;47.976;7.824;2023-01-28T16:24:32;3.90;90.00
21033;DHT22;10675;47.976;7.824;2023-01-28T16:27:22;3.90;90.30
21033;DHT22;10675;47.976;7.824;2023-01-28T16:29:48;3.90;91.00
21033;DHT22;10675;47.976;7.824;2023-01-28T16:32:36;3.90;91.20
21033;DHT22;10675;47.976;7.824;2023-01-28T16:35:20;3.90;90.60
21033;DHT22;10675;47.976;7.824;2023-01-28T16:37:47;3.90;90.20
21033;DHT22;10675;47.976;7.824;2023-01-28T16:40:18;3.90;89.70
21033;DHT22;10675;47.976;7.824;2023-01-28T16:42:44;3.90;90.20
21033;DHT22;10675;47.976;7.824;2023-01-28T16:45:16;3.90;90.00
21033;DHT22;10675;47.976;7.824;2023-01-28T16:47:41;3.80;89.80
21033;DHT22;10675;47.976;7.824;2023-01-28T16:50:09;3.80;90.20
21033;DHT22;10675;47.976;7.824;2023-01-28T16:52:35;3.80;90.40
21033;DHT22;10675;47.976;7.824;2023-01-28T16:55:02;3.80;90.40
21033;DHT22;10675;47.976;7.824;2023-01-28T16:57:29;3.80;90.40
21033;DHT22;10675;47.976;7.824;2023-01-28T16:59:56;3.80;91.50
21033;DHT22;10675;47.976;7.824;2023-01-28T17:02:22;3.80;92.20
21033;DHT22;10675;47.976;7.824;2023-01-28T17:04:47;3.80;92.70
21033;DHT22;10675;47.976;7.824;2023-01-28T17:07:13;3.80;93.00
21033;DHT22;10675;47.976;7.824;2023-01-28T17:09:39;3.80;93.20
21033;DHT22;10675;47.976;7.824;2023-01-28T17:12:05;3.80;93.60
21033;DHT22;10675;47.976;7.824;2023-01-28T17:14:30;3.80;93.50
21033;DHT22;10675;47.976;7.824;2023-01-28T17:16:56;3.80;93.00
21033;DHT22;10675;47.976;7.824;2023-01-28T17:19:21;3.80;93.20
21033;DHT22;10675;47.976;7.824;2023-01-28T17:21:47;3.80;93.40
21033;DHT22;10675;47.976;7.824;2023-01-28T17:24:12;3.80;93.60
21033;DHT22;10675;47.976;7.824;2023-01-28T17:26:38;3.80;93.90
21033;DHT22;10675;47.976;7.824;2023-01-28T17:29:06;3.80;94.30
21033;DHT22;10675;47.976;7.824;2023-01-28T17:31:32;3.80;94.20
21033;DHT22;10675;47.976;7.824;2023-01-28T17:33:58;3.80;94.30
21033;DHT22;10675;47.976;7.824;2023-01-28T17:36:24;3.80;94.40
21033;DHT22;10675;47.976;7.824;2023-01-28T17:38:50;3.80;94.60
21033;DHT22;10675;47.976;7.824;2023-01-28T17:41:17;3.70;94.80
21033;DHT22;10675;47.976;7.824;2023-01-28T17:43:43;3.70;95.10
21033;DHT22;10675;47.976;7.824;2023-01-28T17:46:14;3.60;95.40
21033;DHT22;10675;47.976;7.824;2023-01-28T17:48:40;3.70;96.70
21033;DHT22;10675;47.976;7.824;2023-01-28T17:51:07;3.10;97.20
21033;DHT22;10675;47.976;7.824;2023-01-28T17:53:32;3.60;97.90
21033;DHT22;10675;47.976;7.824;2023-01-28T17:55:58;3.50;98.40
21033;DHT22;10675;47.976;7.824;2023-01-28T17:58:23;3.50;98.70
21033;DHT22;10675;47.976;7.824;2023-01-28T18:00:49;3.50;98.70
21033;DHT22;10675;47.976;7.824;2023-01-28T18:03:15;3.60;98.70
21033;DHT22;10675;47.976;7.824;2023-01-28T18:08:10;3.60;97.60
21033;DHT22;10675;47.976;7.824;2023-01-28T18:10:35;3.60;97.50